createdAt,value
2022-09-20T00:01:13.522Z,99.90
2022-09-20T00:03:43.295Z,99.90
2022-09-20T00:06:13.002Z,99.90
2022-09-20T00:08:41.191Z,99.90
2022-09-20T00:11:11.063Z,99.90
2022-09-20T00:13:41.487Z,99.90
2022-09-20T00:16:11.210Z,99.90
2022-09-20T00:18:39.407Z,99.90
2022-09-20T00:21:07.767Z,99.90
2022-09-20T00:23:36.413Z,99.90
2022-09-20T00:26:05.475Z,99.90
2022-09-20T00:28:33.548Z,99.90
2022-09-20T00:31:02.924Z,99.90
2022-09-20T00:33:44.766Z,99.90
2022-09-20T00:36:12.885Z,99.90
2022-09-20T00:38:40.816Z,99.90
2022-09-20T00:41:08.983Z,99.90
2022-09-20T00:43:39.153Z,99.90
2022-09-20T00:46:21.208Z,99.90
2022-09-20T00:48:50.549Z,99.90
2022-09-20T00:51:24.675Z,99.90
2022-09-20T00:53:55.605Z,99.90
2022-09-20T00:56:28.779Z,99.90
2022-09-20T00:59:02.848Z,99.90
2022-09-20T01:01:32.311Z,99.90
2022-09-20T01:04:01.135Z,99.90
2022-09-20T01:06:29.894Z,99.90
2022-09-20T01:09:02.472Z,99.90
2022-09-20T01:11:31.108Z,99.90
2022-09-20T01:13:59.147Z,99.90
2022-09-20T01:16:28.081Z,99.90
2022-09-20T01:19:00.806Z,99.90
2022-09-20T01:21:29.887Z,99.90
2022-09-20T01:24:03.158Z,99.90
2022-09-20T01:26:55.472Z,99.90
2022-09-20T01:29:50.536Z,99.90
2022-09-20T01:32:23.577Z,99.90
2022-09-20T01:34:55.894Z,99.90
2022-09-20T01:37:27.797Z,99.90
2022-09-20T01:40:03.868Z,99.90
2022-09-20T01:42:37.182Z,99.90
2022-09-20T01:45:16.530Z,99.90
2022-09-20T01:47:52.227Z,99.90
2022-09-20T01:50:30.887Z,99.90
2022-09-20T01:53:31.213Z,99.90
2022-09-20T01:56:19.544Z,99.90
2022-09-20T01:59:24.299Z,99.90
2022-09-20T02:02:40.935Z,99.90
2022-09-20T02:05:23.782Z,99.90
2022-09-20T02:08:19.269Z,99.90
2022-09-20T02:11:09.222Z,99.90
2022-09-20T02:13:58.809Z,99.90
2022-09-20T02:16:44.040Z,99.90
2022-09-20T02:19:45.834Z,99.90
2022-09-20T02:22:29.925Z,99.90
2022-09-20T02:25:08.585Z,99.90
2022-09-20T02:27:44.587Z,99.90
2022-09-20T02:30:24.750Z,99.90
2022-09-20T02:33:07.761Z,99.90
2022-09-20T02:35:43.130Z,99.90
2022-09-20T02:38:33.787Z,99.90
2022-09-20T02:41:34.302Z,99.90
2022-09-20T02:44:08.333Z,99.90
2022-09-20T02:46:42.111Z,99.90
2022-09-20T02:49:17.915Z,99.90
2022-09-20T02:51:52.800Z,99.90
2022-09-20T02:54:31.467Z,99.90
2022-09-20T02:57:04.573Z,99.90
2022-09-20T02:59:41.316Z,99.90
2022-09-20T03:02:19.422Z,99.90
2022-09-20T03:05:01.175Z,99.90
2022-09-20T03:07:37.325Z,99.90
2022-09-20T03:10:17.881Z,99.90
2022-09-20T03:12:56.037Z,99.90
2022-09-20T03:15:31.815Z,99.90
2022-09-20T03:18:09.131Z,99.90
2022-09-20T03:20:48.580Z,99.90
2022-09-20T03:23:31.486Z,99.90
2022-09-20T03:26:08.883Z,99.90
2022-09-20T03:28:55.437Z,99.90
2022-09-20T03:31:36.182Z,99.90
2022-09-20T03:34:13.526Z,99.90
2022-09-20T03:36:57.925Z,99.90
2022-09-20T03:40:04.201Z,99.90
2022-09-20T03:42:33.600Z,99.90
2022-09-20T03:45:49.523Z,99.90
2022-09-20T03:48:44.339Z,99.90
2022-09-20T03:51:24.383Z,99.90
2022-09-20T03:54:07.208Z,99.90
2022-09-20T03:57:00.142Z,99.90
2022-09-20T03:59:42.899Z,99.90
2022-09-20T04:02:27.010Z,99.90
2022-09-20T04:04:59.388Z,99.90
2022-09-20T04:07:39.834Z,99.90
2022-09-20T04:10:18.136Z,99.90
2022-09-20T04:13:00.330Z,99.90
2022-09-20T04:15:38.237Z,99.90
2022-09-20T04:18:19.300Z,99.90
2022-09-20T04:20:51.867Z,99.90
2022-09-20T04:23:35.852Z,99.90
2022-09-20T04:26:05.078Z,99.90
2022-09-20T04:28:39.544Z,99.90
2022-09-20T04:31:25.387Z,99.90
2022-09-20T04:33:58.584Z,99.90
2022-09-20T04:36:51.181Z,99.90
2022-09-20T04:39:34.906Z,99.90
2022-09-20T04:42:35.261Z,99.90
2022-09-20T04:45:35.699Z,99.90
2022-09-20T04:48:35.133Z,99.90
2022-09-20T04:51:27.956Z,99.90
2022-09-20T04:54:23.886Z,99.90
2022-09-20T04:57:08.258Z,99.90
2022-09-20T04:59:55.167Z,99.90
2022-09-20T05:02:48.016Z,99.90
2022-09-20T05:05:55.886Z,99.90
2022-09-20T05:08:52.490Z,99.90
2022-09-20T05:11:43.168Z,99.90
2022-09-20T05:14:25.808Z,99.90
2022-09-20T05:17:14.723Z,99.90
2022-09-20T05:19:55.684Z,99.90
2022-09-20T05:23:03.581Z,99.90
2022-09-20T05:25:56.920Z,99.90
2022-09-20T05:28:32.423Z,99.90
2022-09-20T05:31:06.909Z,99.90
2022-09-20T05:33:44.895Z,99.90
2022-09-20T05:36:18.925Z,99.90
2022-09-20T05:38:51.604Z,99.90
2022-09-20T05:41:29.767Z,99.90
2022-09-20T05:44:07.308Z,99.90
2022-09-20T05:46:44.302Z,99.90
2022-09-20T05:49:21.390Z,99.90
2022-09-20T05:52:04.773Z,99.90
2022-09-20T05:54:59.895Z,99.90
2022-09-20T05:57:37.946Z,99.90
2022-09-20T06:00:11.177Z,99.90
2022-09-20T06:02:53.963Z,99.90
2022-09-20T06:05:33.224Z,99.90
2022-09-20T06:08:24.531Z,99.90
2022-09-20T06:11:20.424Z,99.90
2022-09-20T06:14:05.827Z,99.90
2022-09-20T06:16:43.864Z,99.90
2022-09-20T06:19:20.954Z,99.90
2022-09-20T06:21:53.176Z,99.90
2022-09-20T06:24:34.007Z,99.90
2022-09-20T06:27:09.756Z,99.90
2022-09-20T06:29:41.748Z,99.90
2022-09-20T06:32:09.635Z,99.90
2022-09-20T06:34:37.909Z,99.90
2022-09-20T06:37:38.047Z,99.90
2022-09-20T06:40:37.263Z,99.90
2022-09-20T06:43:06.992Z,99.90
2022-09-20T06:45:35.956Z,99.90
2022-09-20T06:48:04.152Z,99.90
2022-09-20T06:50:33.626Z,99.90
2022-09-20T06:53:02.284Z,99.90
2022-09-20T06:55:34.666Z,99.90
2022-09-20T06:58:02.497Z,99.90
2022-09-20T07:00:31.765Z,99.90
2022-09-20T07:02:59.801Z,99.90
2022-09-20T07:05:27.676Z,99.90
2022-09-20T07:07:58.522Z,99.90
2022-09-20T07:10:28.004Z,99.90
2022-09-20T07:12:59.321Z,99.90
2022-09-20T07:15:28.388Z,99.90
2022-09-20T07:17:57.729Z,99.90
2022-09-20T07:20:25.718Z,99.90
2022-09-20T07:22:54.575Z,99.90
2022-09-20T07:25:23.085Z,99.90
2022-09-20T07:27:52.085Z,99.90
2022-09-20T07:30:21.429Z,99.90
2022-09-20T07:32:49.973Z,99.90
2022-09-20T07:35:19.359Z,99.90
2022-09-20T07:37:47.886Z,99.90
2022-09-20T07:40:16.371Z,99.90
2022-09-20T07:42:45.954Z,99.90
2022-09-20T07:45:13.824Z,99.90
2022-09-20T07:47:44.791Z,99.90
2022-09-20T07:50:12.738Z,99.90
2022-09-20T07:52:41.957Z,99.90
2022-09-20T07:55:10.368Z,99.90
2022-09-20T07:57:39.247Z,99.90
2022-09-20T08:00:09.277Z,99.90
2022-09-20T08:02:44.991Z,99.90
2022-09-20T08:05:12.960Z,99.90
2022-09-20T08:07:42.210Z,99.90
2022-09-20T08:10:11.070Z,99.90
2022-09-20T08:15:26.761Z,99.90
2022-09-20T08:17:54.698Z,99.90
2022-09-20T08:20:22.558Z,99.90
2022-09-20T08:23:12.527Z,99.90
2022-09-20T08:25:40.421Z,99.90
2022-09-20T08:28:08.368Z,99.90
2022-09-20T08:30:36.213Z,99.90
2022-09-20T08:33:06.834Z,99.90
2022-09-20T08:35:38.258Z,99.90
2022-09-20T08:40:59.265Z,99.90
2022-09-20T08:43:30.682Z,99.90
2022-09-20T08:46:05.549Z,99.90
2022-09-20T08:48:34.944Z,99.90
2022-09-20T08:51:05.614Z,99.90
2022-09-20T08:53:36.077Z,99.90
2022-09-20T08:56:04.675Z,99.90
2022-09-20T08:58:32.558Z,99.90
2022-09-20T09:01:00.432Z,99.90
2022-09-20T09:03:29.176Z,99.90
2022-09-20T09:05:58.127Z,99.90
2022-09-20T09:08:29.265Z,99.90
2022-09-20T09:11:00.067Z,99.90
2022-09-20T09:13:32.866Z,99.90
2022-09-20T09:16:02.745Z,99.90
2022-09-20T09:18:35.001Z,99.90
2022-09-20T09:21:05.831Z,99.90
2022-09-20T09:23:42.600Z,99.90
2022-09-20T09:26:21.357Z,99.90
2022-09-20T09:29:04.644Z,99.90
2022-09-20T09:31:32.850Z,99.90
2022-09-20T09:34:01.050Z,99.90
2022-09-20T09:36:29.229Z,99.90
2022-09-20T09:39:16.546Z,99.90
2022-09-20T09:41:46.370Z,99.90
2022-09-20T09:44:23.427Z,99.90
2022-09-20T09:46:53.461Z,99.90
2022-09-20T09:49:24.075Z,99.90
2022-09-20T09:52:07.290Z,99.90
2022-09-20T09:54:38.170Z,99.90
2022-09-20T09:57:41.080Z,99.90
2022-09-20T10:00:20.008Z,99.90
2022-09-20T10:03:27.467Z,99.90
2022-09-20T10:06:07.571Z,99.90
2022-09-20T10:08:44.630Z,99.90
2022-09-20T10:11:25.648Z,99.90
2022-09-20T10:14:05.575Z,99.90
2022-09-20T10:16:45.872Z,99.90
2022-09-20T10:19:22.791Z,99.90
2022-09-20T10:21:57.036Z,99.90
2022-09-20T10:24:39.655Z,99.90
2022-09-20T10:27:23.162Z,99.90
2022-09-20T10:30:03.784Z,99.90
2022-09-20T10:32:45.791Z,99.90
2022-09-20T10:35:27.491Z,99.90
2022-09-20T10:38:13.510Z,99.90
2022-09-20T10:41:09.135Z,99.90
2022-09-20T10:43:55.223Z,99.90
2022-09-20T10:46:37.516Z,99.90
2022-09-20T10:49:19.209Z,99.90
2022-09-20T10:51:55.562Z,99.90
2022-09-20T10:54:38.996Z,99.90
2022-09-20T10:57:26.824Z,99.90
2022-09-20T11:00:03.309Z,99.90
2022-09-20T11:02:50.441Z,99.90
2022-09-20T11:05:31.728Z,99.90
2022-09-20T11:08:10.386Z,99.90
2022-09-20T11:10:43.869Z,99.90
2022-09-20T11:13:20.838Z,99.90
2022-09-20T11:15:55.865Z,99.90
2022-09-20T11:18:31.669Z,99.90
2022-09-20T11:21:07.493Z,99.90
2022-09-20T11:23:45.485Z,99.90
2022-09-20T11:26:21.973Z,96.90
2022-09-20T11:28:55.037Z,96.70
2022-09-20T11:31:28.972Z,96.20
2022-09-20T11:34:03.380Z,96.20
2022-09-20T11:36:39.383Z,97.90
2022-09-20T11:39:16.429Z,98.20
2022-09-20T11:41:45.027Z,98.60
2022-09-20T11:44:17.119Z,97.80
2022-09-20T11:46:52.583Z,97.80
2022-09-20T11:49:27.738Z,97.80
2022-09-20T11:52:17.255Z,97.50
2022-09-20T11:55:19.711Z,98.90
2022-09-20T11:57:59.212Z,98.50
2022-09-20T12:00:31.015Z,97.40
2022-09-20T12:02:59.851Z,97.60
2022-09-20T12:05:33.613Z,98.20
2022-09-20T12:08:04.976Z,96.70
2022-09-20T12:10:35.468Z,94.30
2022-09-20T12:13:05.667Z,93.30
2022-09-20T12:15:36.230Z,93.80
2022-09-20T12:18:31.134Z,94.70
2022-09-20T12:21:07.226Z,91.90
2022-09-20T12:23:46.578Z,91.10
2022-09-20T12:26:39.499Z,90.80
2022-09-20T12:29:52.911Z,91.80
2022-09-20T12:32:58.293Z,90.80
2022-09-20T12:36:26.483Z,91.20
2022-09-20T12:39:03.101Z,91.60
2022-09-20T12:41:47.491Z,91.10
2022-09-20T12:44:29.559Z,90.80
2022-09-20T12:47:01.053Z,88.40
2022-09-20T12:49:53.208Z,87.00
2022-09-20T12:52:56.076Z,84.40
2022-09-20T12:55:38.335Z,82.60
2022-09-20T12:58:18.257Z,81.40
2022-09-20T13:00:48.575Z,79.30
2022-09-20T13:03:35.227Z,74.60
2022-09-20T13:06:24.702Z,71.90
2022-09-20T13:08:57.798Z,72.50
2022-09-20T13:11:31.142Z,71.00
2022-09-20T13:14:02.983Z,70.70
2022-09-20T13:16:34.367Z,70.70
2022-09-20T13:19:05.879Z,66.40
2022-09-20T13:21:37.616Z,64.50
2022-09-20T13:24:06.300Z,66.40
2022-09-20T13:26:41.836Z,70.70
2022-09-20T13:29:20.072Z,74.90
2022-09-20T13:31:48.492Z,76.40
2022-09-20T13:34:22.548Z,76.80
2022-09-20T13:36:56.414Z,78.10
2022-09-20T13:39:32.439Z,79.60
2022-09-20T13:42:06.943Z,83.30
2022-09-20T13:44:37.312Z,85.60
2022-09-20T13:47:23.178Z,86.80
2022-09-20T13:49:51.146Z,88.30
2022-09-20T13:52:26.185Z,90.20
2022-09-20T13:54:55.108Z,90.80
2022-09-20T13:57:28.175Z,91.50
2022-09-20T13:59:57.900Z,92.70
2022-09-20T14:02:29.929Z,93.20
2022-09-20T14:05:01.253Z,94.50
2022-09-20T14:07:30.945Z,96.00
2022-09-20T14:10:00.135Z,97.40
2022-09-20T14:12:29.902Z,98.10
2022-09-20T14:14:59.354Z,99.50
2022-09-20T14:17:31.239Z,99.90
2022-09-20T14:19:59.117Z,99.60
2022-09-20T14:22:28.650Z,98.90
2022-09-20T14:25:02.276Z,99.20
2022-09-20T14:27:32.810Z,99.70
2022-09-20T14:30:00.912Z,99.90
2022-09-20T14:32:48.046Z,99.80
2022-09-20T14:35:18.454Z,98.80
2022-09-20T14:37:49.515Z,98.80
2022-09-20T14:40:25.895Z,98.10
2022-09-20T14:42:58.782Z,98.00
2022-09-20T14:45:30.728Z,98.20
2022-09-20T14:48:06.734Z,98.50
2022-09-20T14:50:39.877Z,99.10
2022-09-20T14:53:26.494Z,99.80
2022-09-20T14:56:00.483Z,99.90
2022-09-20T14:58:30.883Z,99.90
2022-09-20T15:01:05.162Z,99.90
2022-09-20T15:03:35.455Z,99.90
2022-09-20T15:06:04.105Z,99.30
2022-09-20T15:08:32.197Z,98.00
2022-09-20T15:11:00.944Z,95.50
2022-09-20T15:13:30.361Z,95.40
2022-09-20T15:15:59.188Z,95.00
2022-09-20T15:18:31.110Z,94.90
2022-09-20T15:20:58.934Z,92.70
2022-09-20T15:23:26.861Z,93.30
2022-09-20T15:25:56.171Z,93.30
2022-09-20T15:28:24.432Z,94.00
2022-09-20T15:30:53.711Z,94.90
2022-09-20T15:33:22.526Z,95.40
2022-09-20T15:35:50.701Z,95.30
2022-09-20T15:38:19.846Z,95.70
2022-09-20T15:40:49.932Z,96.10
2022-09-20T15:43:21.914Z,96.90
2022-09-20T15:45:51.729Z,97.50
2022-09-20T15:48:23.881Z,97.80
2022-09-20T15:51:02.772Z,96.50
2022-09-20T15:53:34.103Z,95.50
2022-09-20T15:56:03.648Z,95.00
2022-09-20T15:58:36.241Z,95.40
2022-09-20T16:01:06.428Z,95.40
2022-09-20T16:03:37.084Z,95.10
2022-09-20T16:06:08.335Z,95.10
2022-09-20T16:08:38.386Z,95.10
2022-09-20T16:11:07.699Z,95.40
2022-09-20T16:13:37.582Z,96.10
2022-09-20T16:16:07.296Z,96.40
2022-09-20T16:18:51.400Z,96.90
2022-09-20T16:21:20.817Z,96.90
2022-09-20T16:23:50.382Z,97.20
2022-09-20T16:26:19.692Z,97.40
2022-09-20T16:28:48.687Z,97.80
2022-09-20T16:31:34.546Z,98.00
2022-09-20T16:34:05.608Z,98.50
2022-09-20T16:36:34.008Z,98.70
2022-09-20T16:39:03.132Z,98.80
2022-09-20T16:41:31.938Z,99.10
2022-09-20T16:43:59.856Z,99.50
2022-09-20T16:46:28.133Z,99.50
2022-09-20T16:48:56.806Z,99.90
2022-09-20T16:51:33.128Z,99.90
2022-09-20T16:54:03.221Z,99.90
2022-09-20T16:56:33.847Z,99.90
2022-09-20T16:59:02.334Z,99.90
2022-09-20T17:01:31.462Z,99.90
2022-09-20T17:03:59.726Z,99.90
2022-09-20T17:06:29.253Z,99.90
2022-09-20T17:08:59.143Z,99.90
2022-09-20T17:11:30.620Z,99.90
2022-09-20T17:13:59.029Z,99.90
2022-09-20T17:16:29.453Z,99.90
2022-09-20T17:18:59.217Z,99.90
2022-09-20T17:21:30.050Z,99.90
2022-09-20T17:24:00.532Z,99.90
2022-09-20T17:26:31.361Z,99.90
2022-09-20T17:28:59.537Z,99.90
2022-09-20T17:31:30.070Z,99.90
2022-09-20T17:34:00.097Z,99.90
2022-09-20T17:36:31.543Z,99.90
2022-09-20T17:39:04.488Z,99.90
2022-09-20T17:41:33.765Z,99.90
2022-09-20T17:44:07.849Z,99.90
2022-09-20T17:46:37.627Z,99.90
2022-09-20T17:49:07.704Z,99.90
2022-09-20T17:51:38.790Z,99.90
2022-09-20T17:54:07.589Z,99.90
2022-09-20T17:56:36.334Z,99.90
2022-09-20T17:59:06.574Z,99.90
2022-09-20T18:01:36.892Z,99.90
2022-09-20T18:04:06.520Z,99.90
2022-09-20T18:06:37.442Z,99.90
2022-09-20T18:09:07.078Z,99.90
2022-09-20T18:11:37.868Z,99.90
2022-09-20T18:14:07.626Z,99.90
2022-09-20T18:16:37.076Z,99.90
2022-09-20T18:19:05.731Z,99.90
2022-09-20T18:21:35.578Z,99.90
2022-09-20T18:24:06.834Z,99.90
2022-09-20T18:26:35.916Z,99.90
2022-09-20T18:29:06.563Z,99.90
2022-09-20T18:31:36.776Z,99.90
2022-09-20T18:34:06.663Z,99.90
2022-09-20T18:36:36.517Z,99.90
2022-09-20T18:39:06.544Z,99.90
2022-09-20T18:41:36.044Z,99.90
2022-09-20T18:44:07.000Z,99.90
2022-09-20T18:46:37.883Z,99.90
2022-09-20T18:49:08.590Z,99.90
2022-09-20T18:51:39.679Z,99.90
2022-09-20T18:54:10.979Z,99.90
2022-09-20T18:56:39.647Z,99.90
2022-09-20T18:59:14.028Z,99.90
2022-09-20T19:02:13.433Z,99.90
2022-09-20T19:05:08.374Z,99.90
2022-09-20T19:07:45.760Z,99.90
2022-09-20T19:10:23.283Z,99.90
2022-09-20T19:12:58.592Z,99.90
2022-09-20T19:15:44.624Z,99.90
2022-09-20T19:18:31.831Z,99.90
2022-09-20T19:21:11.736Z,99.90
2022-09-20T19:23:52.499Z,99.90
2022-09-20T19:26:23.985Z,99.90
2022-09-20T19:28:55.018Z,99.90
2022-09-20T19:31:25.573Z,99.90
2022-09-20T19:33:55.214Z,99.90
2022-09-20T19:36:23.849Z,99.90
2022-09-20T19:39:02.023Z,99.90
2022-09-20T19:41:44.900Z,99.90
2022-09-20T19:44:27.766Z,99.90
2022-09-20T19:47:17.739Z,99.90
2022-09-20T19:49:54.397Z,99.90
2022-09-20T19:52:23.618Z,99.90
2022-09-20T19:54:52.125Z,99.90
2022-09-20T19:57:24.165Z,99.90
2022-09-20T19:59:53.158Z,99.90
2022-09-20T20:02:21.439Z,99.90
2022-09-20T20:04:49.936Z,99.90
2022-09-20T20:07:28.600Z,99.90
2022-09-20T20:10:04.322Z,99.90
2022-09-20T20:12:39.365Z,99.90
2022-09-20T20:15:18.188Z,99.90
2022-09-20T20:17:56.379Z,99.90
2022-09-20T20:20:31.207Z,99.90
2022-09-20T20:23:35.293Z,99.90
2022-09-20T20:26:08.495Z,99.90
2022-09-20T20:28:38.253Z,99.90
2022-09-20T20:31:07.633Z,99.90
2022-09-20T20:33:35.720Z,99.90
2022-09-20T20:36:03.852Z,99.90
2022-09-20T20:38:32.520Z,99.90
2022-09-20T20:41:04.690Z,99.90
2022-09-20T20:43:34.703Z,99.90
2022-09-20T20:46:04.783Z,99.90
2022-09-20T20:48:33.189Z,99.90
2022-09-20T20:51:02.557Z,99.90
2022-09-20T20:53:32.199Z,99.90
2022-09-20T20:56:05.626Z,99.90
2022-09-20T20:58:34.285Z,99.90
2022-09-20T21:01:11.338Z,99.90
2022-09-20T21:03:40.019Z,99.90
2022-09-20T21:06:08.924Z,99.90
2022-09-20T21:08:38.534Z,99.90
2022-09-20T21:11:08.509Z,99.90
2022-09-20T21:13:36.654Z,99.90
2022-09-20T21:16:08.784Z,99.90
2022-09-20T21:18:37.093Z,99.90
2022-09-20T21:21:05.985Z,99.90
2022-09-20T21:23:34.939Z,99.90
2022-09-20T21:26:07.788Z,99.90
2022-09-20T21:28:37.530Z,99.90
2022-09-20T21:31:07.577Z,99.90
2022-09-20T21:33:37.502Z,99.90
2022-09-20T21:36:09.090Z,99.90
2022-09-20T21:38:37.562Z,99.90
2022-09-20T21:41:07.494Z,99.90
2022-09-20T21:43:36.276Z,99.90
2022-09-20T21:46:05.090Z,99.90
2022-09-20T21:48:34.554Z,99.90
2022-09-20T21:51:05.126Z,99.90
2022-09-20T21:53:33.768Z,99.90
2022-09-20T21:56:04.251Z,99.90
2022-09-20T21:58:32.166Z,99.90
2022-09-20T22:01:02.571Z,99.90
2022-09-20T22:03:37.021Z,99.90
2022-09-20T22:06:09.719Z,99.90
2022-09-20T22:08:38.412Z,99.90
2022-09-20T22:11:10.222Z,99.90
2022-09-20T22:13:42.287Z,99.90
2022-09-20T22:16:13.498Z,99.90
2022-09-20T22:18:44.471Z,99.90
2022-09-20T22:21:14.284Z,99.90
2022-09-20T22:23:43.105Z,99.90
2022-09-20T22:26:13.667Z,99.90
2022-09-20T22:28:43.106Z,99.90
2022-09-20T22:31:13.492Z,99.90
2022-09-20T22:33:44.693Z,99.90
2022-09-20T22:36:14.435Z,99.90
2022-09-20T22:38:43.804Z,99.90
2022-09-20T22:41:12.402Z,99.90
2022-09-20T22:43:41.685Z,99.90
2022-09-20T22:46:11.138Z,99.90
2022-09-20T22:48:39.867Z,99.90
2022-09-20T22:51:11.773Z,99.90
2022-09-20T22:53:40.377Z,99.90
2022-09-20T22:56:09.838Z,99.90
2022-09-20T22:58:40.783Z,99.90
2022-09-20T23:01:11.439Z,99.90
2022-09-20T23:03:40.633Z,99.90
2022-09-20T23:06:15.147Z,99.90
2022-09-20T23:08:43.331Z,99.90
2022-09-20T23:11:12.044Z,99.90
2022-09-20T23:13:40.076Z,99.90
2022-09-20T23:16:19.262Z,99.90
2022-09-20T23:18:48.254Z,99.90
2022-09-20T23:21:18.503Z,99.90
2022-09-20T23:23:47.801Z,99.90
2022-09-20T23:26:18.529Z,99.90
2022-09-20T23:28:48.023Z,99.90
2022-09-20T23:31:17.485Z,99.90
2022-09-20T23:33:48.158Z,99.90
2022-09-20T23:36:18.242Z,99.90
2022-09-20T23:38:47.149Z,99.90
2022-09-20T23:41:17.536Z,99.90
2022-09-20T23:43:45.914Z,99.90
2022-09-20T23:46:15.939Z,99.90
2022-09-20T23:48:44.316Z,99.90
2022-09-20T23:51:14.679Z,99.90
2022-09-20T23:53:44.544Z,99.90
2022-09-20T23:56:13.635Z,99.90
2022-09-20T23:58:43.001Z,99.90
